Time;durP1;ratioP1;P1;durP2;ratioP2;P2;SDS_P1;SDS_P2;PMS_P1;PMS_P2;Temp;Humidity;BMP_temperature;BMP_pressure;BME280_temperature;BME280_humidity;BME280_pressure;Samples;Min_cycle;Max_cycle;Signal;HPM_P1;HPM_P2
2023/05/23 05:30:10;;;;;;;9.23;8.43;;;;;;;;;;6375859;27;24441;-56
2023/05/23 05:33:11;;;;;;;8.10;7.30;;;;;;;;;;6352229;27;20193;-56
2023/05/23 05:36:12;;;;;;;9.80;6.90;;;;;;;;;;6355071;27;20182;-56
2023/05/23 05:39:14;;;;;;;8.20;7.30;;;;;;;;;;6340926;27;20368;-55
2023/05/23 05:42:15;;;;;;;8.83;7.90;;;;;;;;;;6335404;27;20188;-52
2023/05/23 05:45:16;;;;;;;10.57;9.07;;;;;;;;;;6352157;27;20191;-55
2023/05/23 05:48:17;;;;;;;10.13;7.40;;;;;;;;;;6350186;28;20271;-54
2023/05/23 05:51:18;;;;;;;81.73;27.77;;;;;;;;;;6343551;27;20205;-54
2023/05/23 05:54:19;;;;;;;32.47;15.40;;;;;;;;;;6336259;27;20183;-52
2023/05/23 05:57:20;;;;;;;15.30;9.80;;;;;;;;;;6347583;27;20183;-55
2023/05/23 06:00:21;;;;;;;35.43;15.30;;;;;;;;;;6333877;27;20197;-54
2023/05/23 06:03:23;;;;;;;34.00;14.97;;;;;;;;;;6347083;27;20187;-52
2023/05/23 06:06:24;;;;;;;26.77;12.70;;;;;;;;;;6337585;27;20175;-54
2023/05/23 06:09:25;;;;;;;31.07;14.67;;;;;;;;;;6367262;27;20208;-53
2023/05/23 06:12:26;;;;;;;11.53;8.33;;;;;;;;;;6348490;27;20213;-55
2023/05/23 06:15:27;;;;;;;9.47;8.40;;;;;;;;;;6335299;27;20279;-53
2023/05/23 06:18:28;;;;;;;11.80;7.80;;;;;;;;;;6343990;27;20212;-53
2023/05/23 06:21:29;;;;;;;12.53;8.00;;;;;;;;;;6334136;27;20217;-54
2023/05/23 06:24:31;;;;;;;9.37;8.07;;;;;;;;;;6344008;27;20245;-51
2023/05/23 06:27:32;;;;;;;13.10;9.00;;;;;;;;;;6368630;27;20236;-51
2023/05/23 06:30:34;;;;;;;7.20;6.40;;;;;;;;;;6368273;27;20256;-53
2023/05/23 06:33:35;;;;;;;10.30;8.67;;;;;;;;;;6354890;27;20194;-55
2023/05/23 06:36:36;;;;;;;10.20;6.27;;;;;;;;;;6349589;27;20201;-55
2023/05/23 06:39:37;;;;;;;8.87;6.30;;;;;;;;;;6345984;27;20230;-51
2023/05/23 06:42:39;;;;;;;8.97;6.43;;;;;;;;;;6327688;27;20183;-49
2023/05/23 06:45:40;;;;;;;8.47;5.80;;;;;;;;;;6322097;28;20191;-53
2023/05/23 06:48:41;;;;;;;10.60;7.53;;;;;;;;;;6355116;27;20184;-52
2023/05/23 06:51:42;;;;;;;7.30;6.10;;;;;;;;;;6331953;27;20331;-54
2023/05/23 06:54:43;;;;;;;7.37;6.60;;;;;;;;;;6319444;27;20192;-56
2023/05/23 06:57:45;;;;;;;12.63;8.30;;;;;;;;;;6350528;27;20222;-55
2023/05/23 07:00:46;;;;;;;5.70;5.10;;;;;;;;;;6348540;27;20186;-55
2023/05/23 07:03:47;;;;;;;5.43;4.93;;;;;;;;;;6323417;27;20227;-55
2023/05/23 07:06:48;;;;;;;7.40;6.70;;;;;;;;;;6323177;27;20184;-55
2023/05/23 07:09:49;;;;;;;6.27;5.43;;;;;;;;;;6329380;27;20191;-55
2023/05/23 07:12:50;;;;;;;6.50;5.67;;;;;;;;;;6326058;27;20175;-55
2023/05/23 07:15:51;;;;;;;8.60;6.33;;;;;;;;;;6324207;27;20195;-55
2023/05/23 07:18:52;;;;;;;6.77;6.03;;;;;;;;;;6337446;27;20206;-55
2023/05/23 07:21:53;;;;;;;9.30;7.77;;;;;;;;;;6329697;28;20213;-55
2023/05/23 07:24:55;;;;;;;10.47;7.53;;;;;;;;;;6334013;27;20179;-52
2023/05/23 07:27:56;;;;;;;7.57;6.57;;;;;;;;;;6339306;27;20323;-55
2023/05/23 07:30:57;;;;;;;7.37;6.67;;;;;;;;;;6341369;27;20202;-53
2023/05/23 07:33:58;;;;;;;6.20;5.60;;;;;;;;;;6340254;27;20213;-54
2023/05/23 07:37:00;;;;;;;6.90;6.20;;;;;;;;;;6316140;28;20198;-55
2023/05/23 07:40:01;;;;;;;11.83;7.17;;;;;;;;;;6314673;28;20212;-51
2023/05/23 07:43:02;;;;;;;7.40;5.93;;;;;;;;;;6327804;28;20192;-53
2023/05/23 07:46:03;;;;;;;9.27;5.97;;;;;;;;;;6313600;28;20186;-55
2023/05/23 07:49:04;;;;;;;8.23;6.20;;;;;;;;;;6323888;27;20202;-54
2023/05/23 07:52:05;;;;;;;8.40;5.53;;;;;;;;;;6339382;27;20226;-54
2023/05/23 07:55:07;;;;;;;6.37;5.77;;;;;;;;;;6335017;27;20235;-55
2023/05/23 07:58:08;;;;;;;7.63;5.80;;;;;;;;;;6339208;28;20259;-55
2023/05/23 08:01:09;;;;;;;6.30;5.70;;;;;;;;;;6328212;27;20187;-54
2023/05/23 08:04:10;;;;;;;7.37;5.53;;;;;;;;;;6340735;27;20192;-54
2023/05/23 08:07:11;;;;;;;6.40;5.40;;;;;;;;;;6351006;27;20174;-53
2023/05/23 08:10:12;;;;;;;6.17;5.57;;;;;;;;;;6342206;27;20272;-55
2023/05/23 08:13:13;;;;;;;7.23;6.00;;;;;;;;;;6331727;28;20183;-54
2023/05/23 08:16:14;;;;;;;6.70;6.07;;;;;;;;;;6331062;27;20248;-54
2023/05/23 08:19:15;;;;;;;6.50;5.90;;;;;;;;;;6326600;27;20214;-54
2023/05/23 08:22:16;;;;;;;6.60;6.00;;;;;;;;;;6331112;27;20419;-55
2023/05/23 08:25:17;;;;;;;6.87;6.13;;;;;;;;;;6328765;28;20187;-53
2023/05/23 08:28:18;;;;;;;6.77;6.07;;;;;;;;;;6319056;27;20230;-53
2023/05/23 08:31:20;;;;;;;7.33;5.90;;;;;;;;;;6325880;28;20198;-55
2023/05/23 08:34:21;;;;;;;8.40;6.10;;;;;;;;;;6324058;27;20198;-53
2023/05/23 08:37:22;;;;;;;6.70;6.10;;;;;;;;;;6338333;27;20199;-53
2023/05/23 08:40:24;;;;;;;5.40;4.90;;;;;;;;;;6313093;27;20251;-54
2023/05/23 08:43:25;;;;;;;6.03;5.10;;;;;;;;;;6330034;28;20303;-54
2023/05/23 08:46:26;;;;;;;6.20;5.60;;;;;;;;;;6338151;27;20192;-52
2023/05/23 08:49:27;;;;;;;7.83;6.80;;;;;;;;;;6334069;27;20283;-51
2023/05/23 08:52:29;;;;;;;9.53;6.10;;;;;;;;;;6316833;27;20195;-54
2023/05/23 08:55:30;;;;;;;6.83;5.60;;;;;;;;;;6347628;27;20278;-55
2023/05/23 08:58:33;;;;;;;6.37;5.57;;;;;;;;;;6311856;27;20219;-54
2023/05/23 09:01:35;;;;;;;7.33;6.53;;;;;;;;;;6334800;28;20223;-55
2023/05/23 09:04:36;;;;;;;7.70;6.73;;;;;;;;;;6342284;27;20183;-55
2023/05/23 09:07:38;;;;;;;7.00;6.30;;;;;;;;;;6319557;27;20214;-54
2023/05/23 09:10:39;;;;;;;7.07;6.37;;;;;;;;;;6350130;27;20282;-55
2023/05/23 09:13:40;;;;;;;7.00;6.27;;;;;;;;;;6312562;28;20282;-54
2023/05/23 09:16:45;;;;;;;10.83;7.40;;;;;;;;;;6317755;28;20199;-55
2023/05/23 09:19:46;;;;;;;8.00;7.23;;;;;;;;;;6330404;27;20284;-55
2023/05/23 09:22:48;;;;;;;8.63;6.60;;;;;;;;;;6327441;28;20195;-53
2023/05/23 09:25:49;;;;;;;9.43;7.47;;;;;;;;;;6329211;27;20211;-54
2023/05/23 09:28:50;;;;;;;12.37;7.70;;;;;;;;;;6316934;28;20235;-56
2023/05/23 09:31:51;;;;;;;7.93;7.13;;;;;;;;;;6327953;27;20199;-56
2023/05/23 09:34:56;;;;;;;9.37;7.70;;;;;;;;;;6325510;28;20199;-55
2023/05/23 09:37:58;;;;;;;9.43;6.80;;;;;;;;;;6334646;28;20219;-54
2023/05/23 09:40:59;;;;;;;9.10;7.50;;;;;;;;;;6314474;28;20232;-55
2023/05/23 09:44:05;;;;;;;8.43;7.63;;;;;;;;;;6343697;28;20188;-54
2023/05/23 09:47:06;;;;;;;9.30;7.47;;;;;;;;;;6341478;27;20183;-56
2023/05/23 09:50:07;;;;;;;7.77;6.50;;;;;;;;;;6355295;28;20187;-55
2023/05/23 09:53:08;;;;;;;12.33;7.97;;;;;;;;;;6323484;28;20265;-56
2023/05/23 09:56:11;;;;;;;8.33;7.40;;;;;;;;;;6322618;28;20206;-56
2023/05/23 09:59:13;;;;;;;8.30;7.53;;;;;;;;;;6345686;27;20220;-55
2023/05/23 10:02:16;;;;;;;11.03;8.07;;;;;;;;;;6341262;28;20168;-55
2023/05/23 10:05:30;;;;;;;9.13;8.23;;;;;;;;;;6335431;27;20280;-55
2023/05/23 10:08:35;;;;;;;9.90;8.10;;;;;;;;;;6355116;27;20195;-55
2023/05/23 10:12:09;;;;;;;11.70;8.80;;;;;;;;;;6333137;28;20192;-55
2023/05/23 10:15:11;;;;;;;8.33;7.53;;;;;;;;;;6338996;27;20188;-56
2023/05/23 10:18:16;;;;;;;7.87;7.10;;;;;;;;;;6343573;28;20204;-56
2023/05/23 10:21:19;;;;;;;8.07;7.37;;;;;;;;;;6347052;28;20275;-55
2023/05/23 10:24:21;;;;;;;9.27;7.27;;;;;;;;;;6333624;27;20222;-56
2023/05/23 10:27:22;;;;;;;7.60;6.90;;;;;;;;;;6319891;27;20229;-55
2023/05/23 10:30:23;;;;;;;7.63;6.90;;;;;;;;;;6339842;27;20198;-54
2023/05/23 10:33:24;;;;;;;11.27;8.30;;;;;;;;;;6318393;27;20201;-54
2023/05/23 10:36:30;;;;;;;7.83;7.13;;;;;;;;;;6341736;27;20191;-55
2023/05/23 10:39:35;;;;;;;8.43;7.70;;;;;;;;;;6357020;27;20231;-55
2023/05/23 10:42:42;;;;;;;8.40;7.70;;;;;;;;;;6350570;27;20188;-55
2023/05/23 10:45:44;;;;;;;8.77;7.87;;;;;;;;;;6337969;27;20215;-55
2023/05/23 10:48:45;;;;;;;8.17;7.47;;;;;;;;;;6334187;27;20199;-55
2023/05/23 10:51:49;;;;;;;9.37;7.57;;;;;;;;;;6359985;27;20193;-55
2023/05/23 10:54:51;;;;;;;8.50;7.70;;;;;;;;;;6354410;27;20183;-55
2023/05/23 10:58:14;;;;;;;9.10;7.50;;;20.50;63.10;;;;;;6333580;27;20279;-55
2023/05/23 11:01:16;;;;;;;9.73;7.30;;;;;;;;;;6350233;27;20216;-55
2023/05/23 11:04:25;;;;;;;8.87;7.93;;;;;;;;;;6333712;27;20184;-55
2023/05/23 11:07:30;;;;;;;7.20;6.60;;;;;;;;;;6363474;27;20191;-56
2023/05/23 11:10:31;;;;;;;9.20;7.40;;;;;;;;;;6343483;27;20184;-55
2023/05/23 11:13:51;;;;;;;7.40;6.70;;;;;;;;;;6357429;27;20220;-55
2023/05/23 11:16:52;;;;;;;7.53;6.80;;;;;;;;;;6339424;27;20184;-52
2023/05/23 11:19:58;;;;;;;8.10;7.23;;;;;;;;;;6341531;27;20269;-56
2023/05/23 11:23:02;;;;;;;7.83;7.13;;;25.50;48.10;;;;;;6368208;27;20259;-53
2023/05/23 11:26:02;;;;;;;7.43;6.73;;;25.20;48.70;;;;;;6357962;27;20184;-56
2023/05/23 11:29:08;;;;;;;8.43;7.60;;;25.10;49.50;;;;;;6316224;27;20337;-54
2023/05/23 11:32:12;;;;;;;7.97;7.10;;;25.10;48.60;;;;;;6326145;27;20192;-55
2023/05/23 11:35:14;;;;;;;7.23;6.53;;;25.40;48.40;;;;;;6308387;27;20196;-54
2023/05/23 11:38:16;;;;;;;6.73;6.13;;;25.50;49.00;;;;;;6339970;28;20220;-57
2023/05/23 11:41:17;;;;;;;8.87;6.47;;;;;;;;;;6363456;27;20183;-54
2023/05/23 11:44:18;;;;;;;7.03;6.43;;;25.50;46.90;;;;;;6329668;27;20191;-55
2023/05/23 11:47:20;;;;;;;6.50;5.83;;;;;;;;;;6315934;28;20195;-55
2023/05/23 11:50:21;;;;;;;6.37;5.50;;;25.00;49.90;;;;;;6320905;27;20183;-55
2023/05/23 11:53:23;;;;;;;6.17;5.53;;;;;;;;;;6330136;27;20199;-55
2023/05/23 11:56:25;;;;;;;6.33;4.87;;;;;;;;;;6334397;27;20248;-59
2023/05/23 11:59:27;;;;;;;7.20;5.60;;;;;;;;;;6357394;27;20253;-57
2023/05/23 12:02:28;;;;;;;34.17;13.83;;;;;;;;;;6335902;27;20192;-56
2023/05/23 12:05:29;;;;;;;50.07;14.73;;;;;;;;;;6344116;27;20192;-55
2023/05/23 12:08:30;;;;;;;121.33;20.33;;;;;;;;;;6329189;27;20215;-52
2023/05/23 12:11:31;;;;;;;19.80;13.10;;;;;;;;;;6361129;27;20189;-53
2023/05/23 12:14:33;;;;;;;217.47;30.20;;;;;;;;;;6351184;27;20191;-56
2023/05/23 12:17:35;;;;;;;23.97;15.67;;;;;;;;;;6326311;27;20204;-55
2023/05/23 12:20:36;;;;;;;26.23;16.10;;;;;;;;;;6345165;27;20216;-56
2023/05/23 12:23:39;;;;;;;19.60;14.77;;;;;;;;;;6319844;27;20226;-53
2023/05/23 12:26:51;;;;;;;19.90;13.00;;;;;;;;;;6337009;27;20191;-55
2023/05/23 12:29:52;;;;;;;25.50;13.70;;;;;;;;;;6351307;27;20278;-51
2023/05/23 12:32:53;;;;;;;16.93;12.83;;;;;;;;;;6317605;28;20194;-55
2023/05/23 12:35:54;;;;;;;35.33;16.73;;;;;;;;;;6343838;27;20194;-56
2023/05/23 12:39:01;;;;;;;34.10;18.50;;;;;;;;;;6327810;27;20198;-55
2023/05/23 12:42:09;;;;;;;32.13;16.70;;;;;;;;;;6340134;27;20180;-55
2023/05/23 12:45:13;;;;;;;32.30;16.03;;;;;;;;;;6352569;27;20250;-51
2023/05/23 12:48:14;;;;;;;19.30;14.30;;;;;;;;;;6339008;27;20237;-56
2023/05/23 12:51:15;;;;;;;29.23;17.90;;;;;;;;;;6339608;27;20202;-53
2023/05/23 12:54:16;;;;;;;34.80;17.80;;;;;;;;;;6343394;27;20197;-53
2023/05/23 12:57:17;;;;;;;26.60;16.37;;;;;;;;;;6333503;27;20286;-55
2023/05/23 13:00:19;;;;;;;22.13;14.83;;;;;;;;;;6350207;27;20224;-55
2023/05/23 13:03:20;;;;;;;28.17;16.27;;;;;;;;;;6351669;27;20203;-56
2023/05/23 13:06:21;;;;;;;35.33;17.23;;;;;;;;;;6326266;28;20183;-53
2023/05/23 13:09:22;;;;;;;34.93;17.37;;;;;;;;;;6341826;27;20325;-54
2023/05/23 13:12:23;;;;;;;31.60;16.87;;;;;;;;;;6330862;27;20191;-52
2023/05/23 13:15:24;;;;;;;24.17;15.63;;;;;;;;;;6337593;27;20261;-55
2023/05/23 13:18:25;;;;;;;35.83;17.40;;;;;;;;;;6322107;27;20219;-54
2023/05/23 13:21:26;;;;;;;26.33;16.23;;;;;;;;;;6321013;27;20180;-53
2023/05/23 13:24:27;;;;;;;37.00;16.83;;;;;;;;;;6321711;27;20188;-50
2023/05/23 13:27:28;;;;;;;22.03;14.27;;;;;;;;;;6338031;28;20201;-52
2023/05/23 13:30:30;;;;;;;40.60;20.67;;;;;;;;;;6324097;27;20253;-53
2023/05/23 13:33:31;;;;;;;36.20;17.53;;;;;;;;;;6347153;28;20187;-54
2023/05/23 13:36:34;;;;;;;37.30;18.10;;;;;;;;;;6326048;28;20203;-55
2023/05/23 13:39:35;;;;;;;29.57;17.57;;;;;;;;;;6333147;28;20252;-53
2023/05/23 13:42:36;;;;;;;34.20;16.50;;;;;;;;;;6335509;27;20215;-55
2023/05/23 13:45:37;;;;;;;43.53;18.20;;;;;;;;;;6323068;28;20198;-55
2023/05/23 13:48:39;;;;;;;24.90;16.97;;;;;;;;;;6330009;27;20229;-51
2023/05/23 13:51:42;;;;;;;39.50;18.43;;;;;;;;;;6331245;27;20202;-53
2023/05/23 13:54:43;;;;;;;51.47;20.17;;;;;;;;;;6340735;27;20238;-53
2023/05/23 13:57:44;;;;;;;45.13;22.07;;;;;;;;;;6319707;28;20188;-50
2023/05/23 14:00:46;;;;;;;35.23;17.33;;;;;;;;;;6337243;27;20187;-56
2023/05/23 14:03:47;;;;;;;37.77;18.37;;;;;;;;;;6336769;27;20192;-50
2023/05/23 14:06:48;;;;;;;23.27;15.50;;;;;;;;;;6325639;27;20196;-55
2023/05/23 14:09:49;;;;;;;19.03;15.40;;;;;;;;;;6339204;27;20192;-54
2023/05/23 14:12:50;;;;;;;28.17;17.63;;;;;;;;;;6345518;27;20246;-53
2023/05/23 14:15:52;;;;;;;23.50;16.53;;;;;;;;;;6345271;27;20191;-49
2023/05/23 14:18:53;;;;;;;18.00;15.90;;;;;;;;;;6330580;28;20223;-53
2023/05/23 14:21:54;;;;;;;17.20;15.17;;;;;;;;;;6340847;27;20185;-50
2023/05/23 14:24:56;;;;;;;35.50;18.53;;;;;;;;;;6330623;27;20186;-52
2023/05/23 14:27:57;;;;;;;29.97;16.83;;;;;;;;;;6335056;27;20267;-55
2023/05/23 14:30:58;;;;;;;25.63;16.50;;;;;;;;;;6323226;27;20191;-52
2023/05/23 14:33:59;;;;;;;41.43;19.60;;;;;;;;;;6327041;27;20200;-51
2023/05/23 14:37:00;;;;;;;19.53;14.47;;;;;;;;;;6344618;27;20256;-52
2023/05/23 14:40:01;;;;;;;39.30;17.97;;;;;;;;;;6342398;28;20220;-53
2023/05/23 14:43:04;;;;;;;24.00;14.50;;;;;;;;;;6348993;27;20191;-53
2023/05/23 14:46:05;;;;;;;16.27;14.57;;;;;;;;;;6330952;27;20192;-52
2023/05/23 14:49:06;;;;;;;17.07;15.23;;;;;;;;;;6331311;27;20198;-54
2023/05/23 14:52:07;;;;;;;18.10;14.93;;;;;;;;;;6331149;27;20187;-51
2023/05/23 14:55:08;;;;;;;19.13;13.80;;;;;;;;;;6328882;27;20223;-53
2023/05/23 14:58:09;;;;;;;14.10;12.60;;;;;;;;;;6341862;27;20302;-53
2023/05/23 15:01:11;;;;;;;21.20;14.00;;;;;;;;;;6337148;28;20184;-53
2023/05/23 15:04:12;;;;;;;15.80;13.07;;;;;;;;;;6342240;28;20176;-51
2023/05/23 15:07:16;;;;;;;17.33;14.97;;;;;;;;;;6338642;27;20183;-53
2023/05/23 15:10:17;;;;;;;16.13;14.53;;;;;;;;;;6346989;27;20218;-55
2023/05/23 15:13:19;;;;;;;21.37;16.60;;;;;;;;;;6324072;27;20260;-54
2023/05/23 15:16:20;;;;;;;17.53;15.30;;;;;;;;;;6345485;27;20189;-54
2023/05/23 15:19:21;;;;;;;17.23;15.40;;;;;;;;;;6327970;27;20216;-53
2023/05/23 15:22:22;;;;;;;15.50;13.87;;;;;;;;;;6330192;27;20190;-54
2023/05/23 15:25:25;;;;;;;22.30;16.03;;;;;;;;;;6339316;27;20183;-56
2023/05/23 15:28:26;;;;;;;22.60;18.03;;;;;;;;;;6348815;27;20235;-55
2023/05/23 15:31:27;;;;;;;20.93;17.10;;;;;;;;;;6337637;27;20195;-54
2023/05/23 15:34:28;;;;;;;24.87;19.60;;;;;;;;;;6341656;27;20186;-49
2023/05/23 15:37:29;;;;;;;23.17;20.10;;;;;;;;;;6328277;27;20191;-56
2023/05/23 15:40:30;;;;;;;40.00;24.40;;;;;;;;;;6324575;27;20212;-49
2023/05/23 15:43:34;;;;;;;33.80;23.20;;;;;;;;;;6339928;27;20183;-53
2023/05/23 15:46:35;;;;;;;28.23;19.87;;;;;;;;;;6355237;27;20227;-53
2023/05/23 15:49:36;;;;;;;25.97;20.10;;;;;;;;;;6332575;27;20195;-55
2023/05/23 15:52:37;;;;;;;24.03;20.07;;;;;;;;;;6337052;27;20280;-55
2023/05/23 15:55:38;;;;;;;41.47;21.77;;;;;;;;;;6339145;27;20189;-57
2023/05/23 15:58:39;;;;;;;37.00;19.63;;;;;;;;;;6338104;27;20238;-52
2023/05/23 16:01:41;;;;;;;35.30;21.10;;;;;;;;;;6354276;27;20184;-56
2023/05/23 16:04:42;;;;;;;34.77;20.07;;;;;;;;;;6332344;27;20254;-59
2023/05/23 16:07:43;;;;;;;28.30;17.53;;;;;;;;;;6338869;27;20187;-54
2023/05/23 16:10:44;;;;;;;28.57;17.70;;;;;;;;;;6341322;27;20236;-56
2023/05/23 16:13:45;;;;;;;27.17;16.93;;;;;;;;;;6325862;27;20207;-54
2023/05/23 16:16:46;;;;;;;26.77;16.27;;;;;;;;;;6337405;27;20183;-52
2023/05/23 16:19:47;;;;;;;22.33;15.30;;;;;;;;;;6344760;27;20256;-51
2023/05/23 16:22:48;;;;;;;33.77;17.60;;;;;;;;;;6335810;27;20231;-50
2023/05/23 16:25:49;;;;;;;25.03;15.80;;;;;;;;;;6342451;27;20203;-51
2023/05/23 16:28:50;;;;;;;21.53;15.00;;;;;;;;;;6322653;27;20231;-52
2023/05/23 16:31:51;;;;;;;32.87;18.33;;;;;;;;;;6323454;27;20195;-51
2023/05/23 16:34:52;;;;;;;24.27;15.63;;;;;;;;;;6329548;27;20192;-51
2023/05/23 16:37:53;;;;;;;61.03;35.77;;;;;;;;;;6350324;27;20252;-51
2023/05/23 16:40:54;;;;;;;39.57;26.23;;;;;;;;;;6329512;27;20230;-50
2023/05/23 16:43:56;;;;;;;30.50;23.30;;;;;;;;;;6336443;27;20211;-55
2023/05/23 16:46:57;;;;;;;26.60;18.00;;;;;;;;;;6324260;27;20193;-50
2023/05/23 16:49:58;;;;;;;30.87;19.50;;;;;;;;;;6332065;28;20195;-51
2023/05/23 16:52:59;;;;;;;31.67;18.57;;;;;;;;;;6319255;27;20188;-54
2023/05/23 16:56:00;;;;;;;28.37;20.07;;;;;;;;;;6317891;28;20203;-54
2023/05/23 16:59:01;;;;;;;23.87;18.67;;;;;;;;;;6336392;27;20207;-49
2023/05/23 17:02:03;;;;;;;17.43;15.50;;;;;;;;;;6332707;27;20196;-49
2023/05/23 17:05:04;;;;;;;21.93;17.40;;;;;;;;;;6329598;27;20188;-52
2023/05/23 17:08:05;;;;;;;27.43;17.17;;;;;;;;;;6341691;27;20198;-50
2023/05/23 17:11:06;;;;;;;20.47;15.87;;;;;;;;;;6348683;27;20214;-51
2023/05/23 17:14:07;;;;;;;19.03;16.37;;;;;;;;;;6327244;27;20193;-50
2023/05/23 17:17:08;;;;;;;17.90;15.83;;;;;;;;;;6328462;27;20199;-48
2023/05/23 17:20:10;;;;;;;26.73;17.47;;;;;;;;;;6343935;27;20212;-51
2023/05/23 17:23:11;;;;;;;26.40;17.70;;;;;;;;;;6329192;27;20184;-51
2023/05/23 17:26:12;;;;;;;28.03;18.40;;;;;;;;;;6337472;27;20197;-52
2023/05/23 17:29:15;;;;;;;24.23;18.13;;;;;;;;;;6353395;28;20226;-49
2023/05/23 17:32:18;;;;;;;24.20;17.27;;;;;;;;;;6337749;28;20240;-56
2023/05/23 17:35:19;;;;;;;27.37;17.93;;;;;;;;;;6326819;28;20192;-55
2023/05/23 17:38:20;;;;;;;19.83;16.37;;;;;;;;;;6335703;28;20264;-53
2023/05/23 17:41:22;;;;;;;22.50;16.50;;;;;;;;;;6335302;28;20191;-55
2023/05/23 17:44:23;;;;;;;21.43;16.40;;;;;;;;;;6336896;27;20182;-59
2023/05/23 17:47:24;;;;;;;22.33;16.57;;;;;;;;;;6331407;28;20266;-60
2023/05/23 17:50:25;;;;;;;21.80;16.03;;;;;;;;;;6329529;28;20239;-60
2023/05/23 17:53:26;;;;;;;27.30;18.50;;;;;;;;;;6333268;28;20255;-59
2023/05/23 17:56:27;;;;;;;26.63;17.57;;;;;;;;;;6354694;28;20186;-59
2023/05/23 17:59:28;;;;;;;38.40;19.23;;;;;;;;;;6328037;28;20204;-59
2023/05/23 18:02:30;;;;;;;25.77;17.83;;;;;;;;;;6339107;28;20225;-59
2023/05/23 18:05:31;;;;;;;25.97;17.90;;;;;;;;;;6342110;28;20184;-59
2023/05/23 18:08:32;;;;;;;33.77;19.00;;;;;;;;;;6331540;27;20187;-58
2023/05/23 18:11:33;;;;;;;26.30;18.30;;;;;;;;;;6327405;28;20192;-59
2023/05/23 18:14:34;;;;;;;40.10;21.00;;;;;;;;;;6329875;27;20195;-59
2023/05/23 18:17:35;;;;;;;28.40;18.77;;;;;;;;;;6348811;28;20197;-59
2023/05/23 18:20:36;;;;;;;36.97;21.63;;;;;;;;;;6351025;28;20207;-58
2023/05/23 18:23:37;;;;;;;28.50;19.80;;;;;;;;;;6329848;28;20210;-60
2023/05/23 18:26:41;;;;;;;28.80;18.93;;;;;;;;;;6343804;28;20191;-58
2023/05/23 18:29:42;;;;;;;25.77;19.47;;;;;;;;;;6342709;27;20231;-57
2023/05/23 18:32:43;;;;;;;31.90;21.00;;;;;;;;;;6329303;28;20190;-61
2023/05/23 18:35:45;;;;;;;25.20;18.33;;;;;;;;;;6324843;28;20291;-59
2023/05/23 18:38:46;;;;;;;49.20;22.27;;;;;;;;;;6335716;27;20215;-60
2023/05/23 18:41:47;;;;;;;28.87;19.10;;;;;;;;;;6326607;27;20278;-60
2023/05/23 18:44:48;;;;;;;24.10;18.20;;;;;;;;;;6339528;27;20235;-60
2023/05/23 18:47:50;;;;;;;28.40;18.17;;;;;;;;;;6336437;27;20283;-60
2023/05/23 18:50:51;;;;;;;27.73;18.67;;;;;;;;;;6323194;28;20283;-48
2023/05/23 18:53:52;;;;;;;35.53;20.17;;;;;;;;;;6332205;27;20180;-59
2023/05/23 18:56:53;;;;;;;28.20;18.43;;;;;;;;;;6347673;28;20188;-59
2023/05/23 18:59:54;;;;;;;37.60;20.07;;;;;;;;;;6321487;27;20216;-59
2023/05/23 19:02:56;;;;;;;35.17;19.50;;;;;;;;;;6336984;28;20184;-60
2023/05/23 19:06:00;;;;;;;33.47;18.97;;;;;;;;;;6333428;28;20271;-59
2023/05/23 19:09:08;;;;;;;24.93;16.80;;;;;;;;;;6331744;27;20199;-58
2023/05/23 19:12:09;;;;;;;38.77;20.50;;;;;;;;;;6354485;27;20183;-58
2023/05/23 19:15:10;;;;;;;33.47;17.83;;;;;;;;;;6354158;27;20213;-60
2023/05/23 19:18:11;;;;;;;33.67;17.47;;;;;;;;;;6340399;27;20233;-61
2023/05/23 19:21:12;;;;;;;21.03;15.70;;;;;;;;;;6356803;27;20206;-53
2023/05/23 19:24:13;;;;;;;30.93;17.90;;;;;;;;;;6345987;27;20196;-52
2023/05/23 19:27:15;;;;;;;25.93;16.37;;;;;;;;;;6329223;27;20229;-55
2023/05/23 19:30:16;;;;;;;24.77;16.00;;;;;;;;;;6324721;27;20287;-53
2023/05/23 19:33:18;;;;;;;38.50;17.70;;;;;;;;;;6345325;27;20186;-54
2023/05/23 19:36:19;;;;;;;23.27;16.77;;;;;;;;;;6358917;27;20204;-52
2023/05/23 19:39:20;;;;;;;21.00;14.73;;;;;;;;;;6350123;27;20220;-51
2023/05/23 19:42:22;;;;;;;15.57;12.93;;;;;;;;;;6321823;27;20179;-51
2023/05/23 19:45:23;;;;;;;20.40;14.40;;;;;;;;;;6325429;27;20253;-52
2023/05/23 19:48:24;;;;;;;24.50;15.13;;;;;;;;;;6327559;28;20191;-52
2023/05/23 19:51:25;;;;;;;26.37;15.07;;;;;;;;;;6330519;27;20195;-51
2023/05/23 19:54:26;;;;;;;17.47;13.20;;;;;;;;;;6341353;27;20199;-53
2023/05/23 19:57:27;;;;;;;19.03;13.10;;;;;;;;;;6338618;27;20244;-56
2023/05/23 20:00:28;;;;;;;21.47;14.13;;;;;;;;;;6353348;27;20207;-51
2023/05/23 20:03:30;;;;;;;33.77;16.57;;;;;;;;;;6331837;27;20244;-50
2023/05/23 20:06:32;;;;;;;18.43;13.93;;;;;;;;;;6346609;27;20225;-54
2023/05/23 20:09:33;;;;;;;17.03;13.53;;;;;;;;;;6344953;27;20187;-53
2023/05/23 20:12:34;;;;;;;27.90;15.47;;;;;;;;;;6325979;27;20198;-54
2023/05/23 20:15:35;;;;;;;25.23;14.67;;;;;;;;;;6336068;27;20204;-51
2023/05/23 20:18:36;;;;;;;28.50;15.63;;;;;;;;;;6338692;27;20206;-52
2023/05/23 20:21:37;;;;;;;21.23;14.00;;;;;;;;;;6327600;27;20198;-54
2023/05/23 20:24:38;;;;;;;19.87;13.33;;;;;;;;;;6334381;27;20180;-53
2023/05/23 20:27:39;;;;;;;16.23;12.33;;;;;;;;;;6323482;28;20243;-55
2023/05/23 20:30:40;;;;;;;20.90;12.87;;;;;;;;;;6333661;27;20251;-54
2023/05/23 20:33:41;;;;;;;13.30;11.40;;;;;;;;;;6329813;27;20187;-54
2023/05/23 20:36:42;;;;;;;16.87;11.67;;;;;;;;;;6334768;27;20195;-52
2023/05/23 20:39:47;;;;;;;16.90;11.50;;;;;;;;;;6323916;28;20264;-54
2023/05/23 20:42:48;;;;;;;14.83;11.20;;;;;;;;;;6328593;27;20176;-51
2023/05/23 20:45:49;;;;;;;12.10;10.83;;;;;;;;;;6331551;27;20199;-55
2023/05/23 20:48:50;;;;;;;14.27;10.43;;;;;;;;;;6335030;27;20251;-53
2023/05/23 20:51:51;;;;;;;13.53;10.13;;;;;;;;;;6338290;27;20279;-53
2023/05/23 20:54:53;;;;;;;12.80;10.87;;;;;;;;;;6327148;27;20190;-54
2023/05/23 20:57:54;;;;;;;17.33;11.30;;;;;;;;;;6339507;27;20270;-48
2023/05/23 21:00:56;;;;;;;12.87;10.73;;;;;;;;;;6335626;28;20180;-52
2023/05/23 21:03:57;;;;;;;12.43;10.60;;;;;;;;;;6335397;27;20183;-54
2023/05/23 21:07:00;;;;;;;11.37;9.27;;;;;;;;;;6331222;27;20223;-52
2023/05/23 21:10:01;;;;;;;12.37;9.77;;;;;;;;;;6326015;27;20192;-50
2023/05/23 21:13:02;;;;;;;11.67;10.47;;;;;;;;;;6326411;27;20198;-54
2023/05/23 21:16:04;;;;;;;15.13;10.83;;;;;;;;;;6345101;27;20182;-54
2023/05/23 21:19:06;;;;;;;11.70;10.40;;;;;;;;;;6352033;27;20229;-55
2023/05/23 21:22:07;;;;;;;17.97;11.27;;;;;;;;;;6318154;27;20191;-52
2023/05/23 21:25:08;;;;;;;16.20;10.20;;;;;;;;;;6345694;27;20251;-54
2023/05/23 21:28:09;;;;;;;19.60;12.40;;;;;;;;;;6331895;28;20235;-53
2023/05/23 21:31:11;;;;;;;16.97;11.40;;;;;;;;;;6333469;28;20273;-55
2023/05/23 21:34:12;;;;;;;18.13;10.97;;;;;;;;;;6349261;28;20254;-52
2023/05/23 21:37:13;;;;;;;20.40;12.60;;;;;;;;;;6341727;28;20178;-51
2023/05/23 21:40:14;;;;;;;18.83;10.83;;;;;;;;;;6324585;27;20222;-54
2023/05/23 21:43:15;;;;;;;13.43;11.10;;;;;;;;;;6328909;28;20181;-54
2023/05/23 21:46:16;;;;;;;18.33;10.83;;;;;;;;;;6328872;28;20189;-53
2023/05/23 21:49:17;;;;;;;15.23;10.80;;;;;;;;;;6346800;28;20183;-54
2023/05/23 21:52:18;;;;;;;10.83;9.33;;;;;;;;;;6322050;27;20191;-52
2023/05/23 21:55:20;;;;;;;11.37;9.40;;;;;;;;;;6327627;27;20187;-52
2023/05/23 21:58:21;;;;;;;15.53;10.90;;;;;;;;;;6317207;27;20247;-53
2023/05/23 22:01:22;;;;;;;18.83;10.90;;;;;;;;;;6342392;27;20201;-51
2023/05/23 22:04:23;;;;;;;13.93;11.27;;;;;;;;;;6330495;28;20273;-51
2023/05/23 22:07:24;;;;;;;11.63;9.17;;;;;;;;;;6327642;28;20198;-53
2023/05/23 22:10:25;;;;;;;16.33;9.77;;;;;;;;;;6337154;27;20327;-52
2023/05/23 22:13:26;;;;;;;12.60;9.20;;;;;;;;;;6347806;27;20183;-55
2023/05/23 22:16:28;;;;;;;21.20;10.50;;;;;;;;;;6329009;28;20191;-51
2023/05/23 22:19:29;;;;;;;16.53;10.87;;;;;;;;;;6347414;27;20276;-53
2023/05/23 22:22:30;;;;;;;16.27;11.07;;;;;;;;;;6338050;28;20278;-53
2023/05/23 22:25:33;;;;;;;11.03;9.27;;;;;;;;;;6336190;27;20240;-54
2023/05/23 22:28:34;;;;;;;12.17;9.67;;;;;;;;;;6353822;27;20262;-54
2023/05/23 22:31:36;;;;;;;13.30;10.37;;;;;;;;;;6322309;28;20191;-53
2023/05/23 22:34:37;;;;;;;11.03;9.67;;;;;;;;;;6331097;27;20191;-54
2023/05/23 22:37:38;;;;;;;13.97;10.23;;;;;;;;;;6357546;27;20232;-52
2023/05/23 22:40:39;;;;;;;12.43;10.33;;;;;;;;;;6322344;27;20240;-54
2023/05/23 22:43:40;;;;;;;15.20;10.97;;;;;;;;;;6343222;27;20239;-52
2023/05/23 22:46:41;;;;;;;12.33;10.57;;;;;;;;;;6349258;27;20184;-52
2023/05/23 22:49:44;;;;;;;12.07;10.77;;;;;;;;;;6334286;27;20195;-53
2023/05/23 22:52:47;;;;;;;15.33;10.83;;;;;;;;;;6320352;28;20188;-51
2023/05/23 22:55:51;;;;;;;12.30;10.90;;;;;;;;;;6331012;27;20188;-55
2023/05/23 22:58:52;;;;;;;14.50;9.83;;;;;;;;;;6356054;27;20233;-54
2023/05/23 23:01:53;;;;;;;11.13;9.97;;;;;;;;;;6336361;27;20278;-53
2023/05/23 23:04:54;;;;;;;14.63;10.97;;;;;;;;;;6327039;28;20180;-55
2023/05/23 23:07:55;;;;;;;19.70;11.27;;;;;;;;;;6332591;27;20178;-54
2023/05/23 23:10:56;;;;;;;14.20;10.27;;;;;;;;;;6337456;27;20194;-53
2023/05/23 23:13:58;;;;;;;12.70;10.03;;;;;;;;;;6335508;27;20187;-51